sensor_id;sensor_type;location;lat;lon;timestamp;P1;durP1;ratioP1;P2;durP2;ratioP2
6821;SDS011;3449;48.728;8.968;2023-11-21T00:02:24;3.13;;;1.83;;
6821;SDS011;3449;48.728;8.968;2023-11-21T00:04:53;5.97;;;1.90;;
6821;SDS011;3449;48.728;8.968;2023-11-21T00:07:20;8.00;;;1.93;;
6821;SDS011;3449;48.728;8.968;2023-11-21T00:09:47;6.47;;;2.50;;
6821;SDS011;3449;48.728;8.968;2023-11-21T00:12:14;6.00;;;1.53;;
6821;SDS011;3449;48.728;8.968;2023-11-21T00:14:41;3.90;;;1.93;;
6821;SDS011;3449;48.728;8.968;2023-11-21T00:17:08;4.10;;;1.80;;
6821;SDS011;3449;48.728;8.968;2023-11-21T00:19:35;3.70;;;2.07;;
6821;SDS011;3449;48.728;8.968;2023-11-21T00:22:04;15.20;;;2.90;;
6821;SDS011;3449;48.728;8.968;2023-11-21T00:24:31;3.30;;;1.93;;
6821;SDS011;3449;48.728;8.968;2023-11-21T00:26:58;3.67;;;2.10;;
6821;SDS011;3449;48.728;8.968;2023-11-21T00:29:25;2.83;;;1.53;;
6821;SDS011;3449;48.728;8.968;2023-11-21T00:31:52;9.00;;;2.07;;
6821;SDS011;3449;48.728;8.968;2023-11-21T00:34:19;4.27;;;1.93;;
6821;SDS011;3449;48.728;8.968;2023-11-21T00:36:46;2.40;;;1.40;;
6821;SDS011;3449;48.728;8.968;2023-11-21T00:39:14;4.50;;;2.07;;
6821;SDS011;3449;48.728;8.968;2023-11-21T00:41:41;2.50;;;1.57;;
6821;SDS011;3449;48.728;8.968;2023-11-21T00:44:09;17.73;;;1.70;;
6821;SDS011;3449;48.728;8.968;2023-11-21T00:46:36;2.80;;;1.60;;
6821;SDS011;3449;48.728;8.968;2023-11-21T00:49:03;8.23;;;1.53;;
6821;SDS011;3449;48.728;8.968;2023-11-21T00:51:30;6.30;;;1.43;;
6821;SDS011;3449;48.728;8.968;2023-11-21T00:53:58;1.30;;;1.20;;
6821;SDS011;3449;48.728;8.968;2023-11-21T00:56:26;1.20;;;1.10;;
6821;SDS011;3449;48.728;8.968;2023-11-21T00:58:53;4.20;;;1.17;;
6821;SDS011;3449;48.728;8.968;2023-11-21T01:01:20;3.13;;;1.03;;
6821;SDS011;3449;48.728;8.968;2023-11-21T01:03:48;1.60;;;1.33;;
6821;SDS011;3449;48.728;8.968;2023-11-21T01:06:15;2.97;;;1.40;;
6821;SDS011;3449;48.728;8.968;2023-11-21T01:08:43;3.60;;;1.30;;
6821;SDS011;3449;48.728;8.968;2023-11-21T01:11:10;7.10;;;1.50;;
6821;SDS011;3449;48.728;8.968;2023-11-21T01:13:39;5.70;;;1.37;;
6821;SDS011;3449;48.728;8.968;2023-11-21T01:16:07;1.87;;;1.30;;
6821;SDS011;3449;48.728;8.968;2023-11-21T01:18:34;0.90;;;0.90;;
6821;SDS011;3449;48.728;8.968;2023-11-21T01:21:01;2.40;;;1.13;;
6821;SDS011;3449;48.728;8.968;2023-11-21T01:23:28;1.57;;;1.03;;
6821;SDS011;3449;48.728;8.968;2023-11-21T01:25:55;2.73;;;1.13;;
6821;SDS011;3449;48.728;8.968;2023-11-21T01:28:23;5.20;;;0.97;;
6821;SDS011;3449;48.728;8.968;2023-11-21T01:30:51;1.83;;;1.20;;
6821;SDS011;3449;48.728;8.968;2023-11-21T01:33:21;3.40;;;1.47;;
6821;SDS011;3449;48.728;8.968;2023-11-21T01:35:50;3.20;;;1.50;;
6821;SDS011;3449;48.728;8.968;2023-11-21T01:38:19;11.53;;;1.50;;
6821;SDS011;3449;48.728;8.968;2023-11-21T01:40:46;2.93;;;1.13;;
6821;SDS011;3449;48.728;8.968;2023-11-21T01:43:13;2.50;;;1.10;;
6821;SDS011;3449;48.728;8.968;2023-11-21T01:45:40;3.30;;;1.53;;
6821;SDS011;3449;48.728;8.968;2023-11-21T01:48:08;9.00;;;1.07;;
6821;SDS011;3449;48.728;8.968;2023-11-21T01:50:35;2.73;;;1.20;;
6821;SDS011;3449;48.728;8.968;2023-11-21T01:53:02;1.60;;;1.23;;
6821;SDS011;3449;48.728;8.968;2023-11-21T01:55:30;6.37;;;1.47;;
6821;SDS011;3449;48.728;8.968;2023-11-21T01:57:58;1.60;;;1.13;;
6821;SDS011;3449;48.728;8.968;2023-11-21T02:00:26;1.77;;;1.10;;
6821;SDS011;3449;48.728;8.968;2023-11-21T02:02:54;3.23;;;1.00;;
6821;SDS011;3449;48.728;8.968;2023-11-21T02:05:23;2.77;;;2.13;;
6821;SDS011;3449;48.728;8.968;2023-11-21T02:07:51;4.50;;;1.50;;
6821;SDS011;3449;48.728;8.968;2023-11-21T02:10:18;2.10;;;0.93;;
6821;SDS011;3449;48.728;8.968;2023-11-21T02:12:48;1.97;;;1.30;;
6821;SDS011;3449;48.728;8.968;2023-11-21T02:15:16;1.73;;;0.80;;
6821;SDS011;3449;48.728;8.968;2023-11-21T02:17:46;1.40;;;1.17;;
6821;SDS011;3449;48.728;8.968;2023-11-21T02:20:16;4.03;;;1.30;;
6821;SDS011;3449;48.728;8.968;2023-11-21T02:22:49;3.80;;;0.90;;
6821;SDS011;3449;48.728;8.968;2023-11-21T02:25:18;1.67;;;1.47;;
6821;SDS011;3449;48.728;8.968;2023-11-21T02:27:44;1.60;;;1.00;;
6821;SDS011;3449;48.728;8.968;2023-11-21T02:30:13;2.30;;;1.40;;
6821;SDS011;3449;48.728;8.968;2023-11-21T02:32:41;3.93;;;1.50;;
6821;SDS011;3449;48.728;8.968;2023-11-21T02:35:08;3.03;;;1.30;;
6821;SDS011;3449;48.728;8.968;2023-11-21T02:37:37;2.60;;;1.67;;
6821;SDS011;3449;48.728;8.968;2023-11-21T02:40:06;4.87;;;1.03;;
6821;SDS011;3449;48.728;8.968;2023-11-21T02:42:35;1.30;;;0.80;;
6821;SDS011;3449;48.728;8.968;2023-11-21T02:45:02;1.63;;;0.83;;
6821;SDS011;3449;48.728;8.968;2023-11-21T02:47:30;5.33;;;1.13;;
6821;SDS011;3449;48.728;8.968;2023-11-21T02:49:57;1.93;;;0.80;;
6821;SDS011;3449;48.728;8.968;2023-11-21T02:52:24;1.70;;;0.90;;
6821;SDS011;3449;48.728;8.968;2023-11-21T02:54:51;3.30;;;0.93;;
6821;SDS011;3449;48.728;8.968;2023-11-21T02:57:19;0.93;;;0.70;;
6821;SDS011;3449;48.728;8.968;2023-11-21T02:59:46;6.53;;;1.40;;
6821;SDS011;3449;48.728;8.968;2023-11-21T03:02:12;2.13;;;0.90;;
6821;SDS011;3449;48.728;8.968;2023-11-21T03:04:40;0.70;;;0.70;;
6821;SDS011;3449;48.728;8.968;2023-11-21T03:07:08;1.37;;;0.70;;
6821;SDS011;3449;48.728;8.968;2023-11-21T03:09:35;0.90;;;0.80;;
6821;SDS011;3449;48.728;8.968;2023-11-21T03:12:02;2.13;;;1.07;;
6821;SDS011;3449;48.728;8.968;2023-11-21T03:14:31;0.87;;;0.60;;
6821;SDS011;3449;48.728;8.968;2023-11-21T03:16:58;0.60;;;0.60;;
6821;SDS011;3449;48.728;8.968;2023-11-21T03:19:25;0.90;;;0.73;;
6821;SDS011;3449;48.728;8.968;2023-11-21T03:21:52;1.57;;;0.70;;
6821;SDS011;3449;48.728;8.968;2023-11-21T03:24:19;0.80;;;0.60;;
6821;SDS011;3449;48.728;8.968;2023-11-21T03:26:47;5.50;;;1.00;;
6821;SDS011;3449;48.728;8.968;2023-11-21T03:29:15;2.63;;;1.00;;
6821;SDS011;3449;48.728;8.968;2023-11-21T03:31:43;2.57;;;0.73;;
6821;SDS011;3449;48.728;8.968;2023-11-21T03:34:14;1.03;;;1.03;;
6821;SDS011;3449;48.728;8.968;2023-11-21T03:36:42;1.70;;;1.60;;
6821;SDS011;3449;48.728;8.968;2023-11-21T03:39:11;0.67;;;0.57;;
6821;SDS011;3449;48.728;8.968;2023-11-21T03:41:38;0.93;;;0.63;;
6821;SDS011;3449;48.728;8.968;2023-11-21T03:44:05;2.77;;;0.83;;
6821;SDS011;3449;48.728;8.968;2023-11-21T03:46:32;0.60;;;0.60;;
6821;SDS011;3449;48.728;8.968;2023-11-21T03:49:00;0.90;;;0.67;;
6821;SDS011;3449;48.728;8.968;2023-11-21T03:51:27;1.40;;;0.90;;
6821;SDS011;3449;48.728;8.968;2023-11-21T03:53:53;2.03;;;0.90;;
6821;SDS011;3449;48.728;8.968;2023-11-21T03:56:20;5.80;;;0.70;;
6821;SDS011;3449;48.728;8.968;2023-11-21T03:58:47;2.27;;;0.60;;
6821;SDS011;3449;48.728;8.968;2023-11-21T04:01:18;2.60;;;0.93;;
6821;SDS011;3449;48.728;8.968;2023-11-21T04:03:47;0.83;;;0.70;;
6821;SDS011;3449;48.728;8.968;2023-11-21T04:06:15;2.87;;;1.60;;
6821;SDS011;3449;48.728;8.968;2023-11-21T04:08:43;6.10;;;1.20;;
6821;SDS011;3449;48.728;8.968;2023-11-21T04:11:10;2.53;;;1.00;;
6821;SDS011;3449;48.728;8.968;2023-11-21T04:13:37;1.53;;;0.80;;
6821;SDS011;3449;48.728;8.968;2023-11-21T04:16:05;1.00;;;0.90;;
6821;SDS011;3449;48.728;8.968;2023-11-21T04:18:33;1.33;;;0.60;;
6821;SDS011;3449;48.728;8.968;2023-11-21T04:20:59;1.00;;;0.90;;
6821;SDS011;3449;48.728;8.968;2023-11-21T04:23:28;3.27;;;0.57;;
6821;SDS011;3449;48.728;8.968;2023-11-21T04:25:56;3.23;;;0.63;;
6821;SDS011;3449;48.728;8.968;2023-11-21T04:28:23;1.10;;;0.60;;
6821;SDS011;3449;48.728;8.968;2023-11-21T04:30:50;0.70;;;0.63;;
6821;SDS011;3449;48.728;8.968;2023-11-21T04:33:17;1.40;;;0.70;;
6821;SDS011;3449;48.728;8.968;2023-11-21T04:35:44;4.50;;;2.60;;
6821;SDS011;3449;48.728;8.968;2023-11-21T04:38:11;1.53;;;0.80;;
6821;SDS011;3449;48.728;8.968;2023-11-21T04:40:39;2.20;;;0.70;;
6821;SDS011;3449;48.728;8.968;2023-11-21T04:43:06;1.13;;;0.60;;
6821;SDS011;3449;48.728;8.968;2023-11-21T04:45:33;2.00;;;0.80;;
6821;SDS011;3449;48.728;8.968;2023-11-21T04:48:00;2.63;;;0.50;;
6821;SDS011;3449;48.728;8.968;2023-11-21T04:50:26;1.23;;;0.70;;
6821;SDS011;3449;48.728;8.968;2023-11-21T04:52:53;0.60;;;0.50;;
6821;SDS011;3449;48.728;8.968;2023-11-21T04:55:20;1.00;;;0.83;;
6821;SDS011;3449;48.728;8.968;2023-11-21T04:57:48;0.90;;;0.43;;
6821;SDS011;3449;48.728;8.968;2023-11-21T05:00:15;2.10;;;0.80;;
6821;SDS011;3449;48.728;8.968;2023-11-21T05:02:42;2.00;;;0.60;;
6821;SDS011;3449;48.728;8.968;2023-11-21T05:05:09;5.90;;;0.80;;
6821;SDS011;3449;48.728;8.968;2023-11-21T05:07:36;0.97;;;0.70;;
6821;SDS011;3449;48.728;8.968;2023-11-21T05:10:04;0.70;;;0.57;;
6821;SDS011;3449;48.728;8.968;2023-11-21T05:12:37;1.50;;;0.87;;
6821;SDS011;3449;48.728;8.968;2023-11-21T05:15:06;2.40;;;1.10;;
6821;SDS011;3449;48.728;8.968;2023-11-21T05:17:35;1.10;;;0.77;;
6821;SDS011;3449;48.728;8.968;2023-11-21T05:20:02;1.13;;;0.90;;
6821;SDS011;3449;48.728;8.968;2023-11-21T05:22:33;2.20;;;0.90;;
6821;SDS011;3449;48.728;8.968;2023-11-21T05:25:00;4.77;;;0.80;;
6821;SDS011;3449;48.728;8.968;2023-11-21T05:27:28;0.60;;;0.50;;
6821;SDS011;3449;48.728;8.968;2023-11-21T05:29:54;0.60;;;0.50;;
6821;SDS011;3449;48.728;8.968;2023-11-21T05:32:23;0.97;;;0.70;;
6821;SDS011;3449;48.728;8.968;2023-11-21T05:34:49;0.70;;;0.70;;
6821;SDS011;3449;48.728;8.968;2023-11-21T05:37:16;4.33;;;0.70;;
6821;SDS011;3449;48.728;8.968;2023-11-21T05:39:43;1.53;;;0.70;;
6821;SDS011;3449;48.728;8.968;2023-11-21T05:42:10;0.63;;;0.60;;
6821;SDS011;3449;48.728;8.968;2023-11-21T05:44:40;1.00;;;0.90;;
6821;SDS011;3449;48.728;8.968;2023-11-21T05:47:08;1.60;;;1.00;;
6821;SDS011;3449;48.728;8.968;2023-11-21T05:49:36;6.20;;;0.90;;
6821;SDS011;3449;48.728;8.968;2023-11-21T05:52:03;3.10;;;1.10;;
6821;SDS011;3449;48.728;8.968;2023-11-21T05:54:31;1.73;;;1.30;;
6821;SDS011;3449;48.728;8.968;2023-11-21T05:56:58;1.23;;;0.90;;
6821;SDS011;3449;48.728;8.968;2023-11-21T05:59:25;2.37;;;1.13;;
6821;SDS011;3449;48.728;8.968;2023-11-21T06:01:52;1.17;;;1.17;;
6821;SDS011;3449;48.728;8.968;2023-11-21T06:04:19;3.47;;;1.87;;
6821;SDS011;3449;48.728;8.968;2023-11-21T06:06:50;2.80;;;2.17;;
6821;SDS011;3449;48.728;8.968;2023-11-21T06:09:18;4.50;;;2.33;;
6821;SDS011;3449;48.728;8.968;2023-11-21T06:11:45;7.00;;;1.43;;
6821;SDS011;3449;48.728;8.968;2023-11-21T06:14:14;1.17;;;1.07;;
6821;SDS011;3449;48.728;8.968;2023-11-21T06:16:42;1.70;;;0.90;;
6821;SDS011;3449;48.728;8.968;2023-11-21T06:19:10;3.60;;;1.33;;
6821;SDS011;3449;48.728;8.968;2023-11-21T06:21:37;1.60;;;0.93;;
6821;SDS011;3449;48.728;8.968;2023-11-21T06:24:06;1.07;;;1.07;;
6821;SDS011;3449;48.728;8.968;2023-11-21T06:26:33;3.27;;;1.20;;
6821;SDS011;3449;48.728;8.968;2023-11-21T06:29:00;1.17;;;1.10;;
6821;SDS011;3449;48.728;8.968;2023-11-21T06:31:28;2.27;;;1.10;;
6821;SDS011;3449;48.728;8.968;2023-11-21T06:33:55;1.10;;;1.03;;
6821;SDS011;3449;48.728;8.968;2023-11-21T06:36:22;1.37;;;1.00;;
6821;SDS011;3449;48.728;8.968;2023-11-21T06:38:49;1.17;;;1.07;;
6821;SDS011;3449;48.728;8.968;2023-11-21T06:41:17;2.10;;;1.43;;
6821;SDS011;3449;48.728;8.968;2023-11-21T06:43:44;3.10;;;1.30;;
6821;SDS011;3449;48.728;8.968;2023-11-21T06:46:11;2.87;;;0.70;;
6821;SDS011;3449;48.728;8.968;2023-11-21T06:48:39;2.40;;;1.10;;
6821;SDS011;3449;48.728;8.968;2023-11-21T06:51:08;2.87;;;1.40;;
6821;SDS011;3449;48.728;8.968;2023-11-21T06:53:35;1.20;;;1.07;;
6821;SDS011;3449;48.728;8.968;2023-11-21T06:56:02;3.70;;;1.37;;
6821;SDS011;3449;48.728;8.968;2023-11-21T06:58:32;1.23;;;1.10;;
6821;SDS011;3449;48.728;8.968;2023-11-21T07:01:00;0.90;;;0.90;;
6821;SDS011;3449;48.728;8.968;2023-11-21T07:03:26;3.30;;;1.60;;
6821;SDS011;3449;48.728;8.968;2023-11-21T07:05:53;2.70;;;1.70;;
6821;SDS011;3449;48.728;8.968;2023-11-21T07:08:20;1.80;;;1.50;;
6821;SDS011;3449;48.728;8.968;2023-11-21T07:10:47;2.10;;;1.90;;
6821;SDS011;3449;48.728;8.968;2023-11-21T07:13:14;1.93;;;1.83;;
6821;SDS011;3449;48.728;8.968;2023-11-21T07:15:42;2.80;;;2.60;;
6821;SDS011;3449;48.728;8.968;2023-11-21T07:18:09;2.93;;;2.50;;
6821;SDS011;3449;48.728;8.968;2023-11-21T07:20:36;2.37;;;2.17;;
6821;SDS011;3449;48.728;8.968;2023-11-21T07:23:03;2.43;;;2.23;;
6821;SDS011;3449;48.728;8.968;2023-11-21T07:25:30;3.83;;;2.80;;
6821;SDS011;3449;48.728;8.968;2023-11-21T07:27:58;3.50;;;1.97;;
6821;SDS011;3449;48.728;8.968;2023-11-21T07:30:25;4.63;;;2.90;;
6821;SDS011;3449;48.728;8.968;2023-11-21T07:32:53;2.47;;;1.90;;
6821;SDS011;3449;48.728;8.968;2023-11-21T07:35:20;11.00;;;2.17;;
6821;SDS011;3449;48.728;8.968;2023-11-21T07:37:47;4.90;;;2.30;;
6821;SDS011;3449;48.728;8.968;2023-11-21T07:40:14;6.27;;;2.87;;
6821;SDS011;3449;48.728;8.968;2023-11-21T07:42:42;3.67;;;1.87;;
6821;SDS011;3449;48.728;8.968;2023-11-21T07:45:09;3.43;;;1.70;;
6821;SDS011;3449;48.728;8.968;2023-11-21T07:47:36;3.07;;;2.30;;
6821;SDS011;3449;48.728;8.968;2023-11-21T07:50:06;3.03;;;2.57;;
6821;SDS011;3449;48.728;8.968;2023-11-21T07:52:34;3.60;;;1.80;;
6821;SDS011;3449;48.728;8.968;2023-11-21T07:55:01;2.50;;;1.80;;
6821;SDS011;3449;48.728;8.968;2023-11-21T07:57:28;1.83;;;1.67;;
6821;SDS011;3449;48.728;8.968;2023-11-21T07:59:55;6.93;;;1.90;;
6821;SDS011;3449;48.728;8.968;2023-11-21T08:02:22;1.67;;;1.57;;
6821;SDS011;3449;48.728;8.968;2023-11-21T08:04:49;3.80;;;1.77;;
6821;SDS011;3449;48.728;8.968;2023-11-21T08:07:18;2.33;;;1.77;;
6821;SDS011;3449;48.728;8.968;2023-11-21T08:09:45;3.90;;;2.30;;
6821;SDS011;3449;48.728;8.968;2023-11-21T08:12:14;1.53;;;1.43;;
6821;SDS011;3449;48.728;8.968;2023-11-21T08:14:41;1.93;;;1.73;;
6821;SDS011;3449;48.728;8.968;2023-11-21T08:17:09;3.37;;;1.40;;
6821;SDS011;3449;48.728;8.968;2023-11-21T08:19:36;9.83;;;1.60;;
6821;SDS011;3449;48.728;8.968;2023-11-21T08:22:03;1.67;;;1.57;;
6821;SDS011;3449;48.728;8.968;2023-11-21T08:24:34;1.57;;;1.47;;
6821;SDS011;3449;48.728;8.968;2023-11-21T08:27:02;2.63;;;1.80;;
6821;SDS011;3449;48.728;8.968;2023-11-21T08:29:29;2.57;;;1.90;;
6821;SDS011;3449;48.728;8.968;2023-11-21T08:31:57;2.40;;;1.30;;
6821;SDS011;3449;48.728;8.968;2023-11-21T08:34:25;4.30;;;1.33;;
6821;SDS011;3449;48.728;8.968;2023-11-21T08:36:51;1.80;;;1.57;;
6821;SDS011;3449;48.728;8.968;2023-11-21T08:39:18;2.13;;;1.67;;
6821;SDS011;3449;48.728;8.968;2023-11-21T08:41:47;1.70;;;1.60;;
6821;SDS011;3449;48.728;8.968;2023-11-21T08:44:13;2.03;;;1.50;;
6821;SDS011;3449;48.728;8.968;2023-11-21T08:46:43;1.33;;;1.13;;
6821;SDS011;3449;48.728;8.968;2023-11-21T08:49:10;2.20;;;1.00;;
6821;SDS011;3449;48.728;8.968;2023-11-21T08:51:37;3.93;;;1.70;;
6821;SDS011;3449;48.728;8.968;2023-11-21T08:54:04;3.73;;;1.53;;
6821;SDS011;3449;48.728;8.968;2023-11-21T08:56:33;3.13;;;1.60;;
6821;SDS011;3449;48.728;8.968;2023-11-21T08:59:01;1.67;;;1.57;;
6821;SDS011;3449;48.728;8.968;2023-11-21T09:01:28;1.80;;;1.33;;
6821;SDS011;3449;48.728;8.968;2023-11-21T09:03:56;1.93;;;1.40;;
6821;SDS011;3449;48.728;8.968;2023-11-21T09:06:23;1.00;;;1.00;;
6821;SDS011;3449;48.728;8.968;2023-11-21T09:08:50;1.97;;;1.07;;
6821;SDS011;3449;48.728;8.968;2023-11-21T09:11:17;1.13;;;1.07;;
6821;SDS011;3449;48.728;8.968;2023-11-21T09:13:44;2.07;;;1.10;;
6821;SDS011;3449;48.728;8.968;2023-11-21T09:16:13;2.00;;;0.70;;
6821;SDS011;3449;48.728;8.968;2023-11-21T09:18:41;0.97;;;0.90;;
6821;SDS011;3449;48.728;8.968;2023-11-21T09:21:08;1.90;;;1.57;;
6821;SDS011;3449;48.728;8.968;2023-11-21T09:23:35;3.07;;;1.20;;
6821;SDS011;3449;48.728;8.968;2023-11-21T09:26:02;1.63;;;1.43;;
6821;SDS011;3449;48.728;8.968;2023-11-21T09:28:30;0.97;;;0.97;;
6821;SDS011;3449;48.728;8.968;2023-11-21T09:30:57;2.13;;;1.93;;
6821;SDS011;3449;48.728;8.968;2023-11-21T09:33:25;2.00;;;1.37;;
6821;SDS011;3449;48.728;8.968;2023-11-21T09:35:52;1.93;;;1.33;;
6821;SDS011;3449;48.728;8.968;2023-11-21T09:38:19;1.47;;;1.13;;
6821;SDS011;3449;48.728;8.968;2023-11-21T09:40:46;1.73;;;1.63;;
6821;SDS011;3449;48.728;8.968;2023-11-21T09:43:15;1.73;;;1.33;;
6821;SDS011;3449;48.728;8.968;2023-11-21T09:45:44;1.00;;;1.00;;
6821;SDS011;3449;48.728;8.968;2023-11-21T09:48:13;1.70;;;1.30;;
6821;SDS011;3449;48.728;8.968;2023-11-21T09:50:42;1.53;;;1.43;;
6821;SDS011;3449;48.728;8.968;2023-11-21T09:53:12;2.50;;;1.33;;
6821;SDS011;3449;48.728;8.968;2023-11-21T09:55:43;1.50;;;1.40;;
6821;SDS011;3449;48.728;8.968;2023-11-21T09:58:11;1.40;;;1.30;;
6821;SDS011;3449;48.728;8.968;2023-11-21T10:00:40;2.60;;;1.47;;
6821;SDS011;3449;48.728;8.968;2023-11-21T10:03:07;2.10;;;1.43;;
6821;SDS011;3449;48.728;8.968;2023-11-21T10:05:35;4.07;;;1.83;;
6821;SDS011;3449;48.728;8.968;2023-11-21T10:08:03;3.73;;;2.23;;
6821;SDS011;3449;48.728;8.968;2023-11-21T10:10:33;5.43;;;2.10;;
6821;SDS011;3449;48.728;8.968;2023-11-21T10:13:02;3.47;;;1.90;;
6821;SDS011;3449;48.728;8.968;2023-11-21T10:15:31;2.40;;;1.60;;
6821;SDS011;3449;48.728;8.968;2023-11-21T10:18:02;3.20;;;2.00;;
6821;SDS011;3449;48.728;8.968;2023-11-21T10:20:30;2.80;;;2.00;;
6821;SDS011;3449;48.728;8.968;2023-11-21T10:22:58;3.80;;;1.90;;
6821;SDS011;3449;48.728;8.968;2023-11-21T10:25:28;4.43;;;2.13;;
6821;SDS011;3449;48.728;8.968;2023-11-21T10:27:57;4.77;;;1.87;;
6821;SDS011;3449;48.728;8.968;2023-11-21T10:30:27;3.83;;;2.03;;
6821;SDS011;3449;48.728;8.968;2023-11-21T10:32:58;6.60;;;1.40;;
6821;SDS011;3449;48.728;8.968;2023-11-21T10:35:38;1.23;;;1.07;;
6821;SDS011;3449;48.728;8.968;2023-11-21T10:38:06;1.80;;;1.70;;
6821;SDS011;3449;48.728;8.968;2023-11-21T10:40:38;5.23;;;1.77;;
6821;SDS011;3449;48.728;8.968;2023-11-21T10:43:07;2.50;;;2.30;;
6821;SDS011;3449;48.728;8.968;2023-11-21T10:45:35;4.53;;;1.47;;
6821;SDS011;3449;48.728;8.968;2023-11-21T10:48:04;2.00;;;1.80;;
6821;SDS011;3449;48.728;8.968;2023-11-21T10:50:33;1.80;;;1.30;;
6821;SDS011;3449;48.728;8.968;2023-11-21T10:53:01;1.83;;;1.53;;
6821;SDS011;3449;48.728;8.968;2023-11-21T10:55:29;1.90;;;1.50;;
6821;SDS011;3449;48.728;8.968;2023-11-21T10:57:58;1.53;;;1.53;;
6821;SDS011;3449;48.728;8.968;2023-11-21T11:00:28;1.60;;;1.50;;
6821;SDS011;3449;48.728;8.968;2023-11-21T11:02:55;2.93;;;1.73;;
6821;SDS011;3449;48.728;8.968;2023-11-21T11:05:24;2.77;;;1.63;;
6821;SDS011;3449;48.728;8.968;2023-11-21T11:07:56;2.23;;;2.03;;
6821;SDS011;3449;48.728;8.968;2023-11-21T11:10:26;4.10;;;1.70;;
6821;SDS011;3449;48.728;8.968;2023-11-21T11:12:54;4.03;;;2.70;;
6821;SDS011;3449;48.728;8.968;2023-11-21T11:15:23;1.67;;;1.53;;
6821;SDS011;3449;48.728;8.968;2023-11-21T11:17:51;1.47;;;1.40;;
6821;SDS011;3449;48.728;8.968;2023-11-21T11:20:22;1.53;;;1.33;;
6821;SDS011;3449;48.728;8.968;2023-11-21T11:22:51;1.23;;;1.23;;
6821;SDS011;3449;48.728;8.968;2023-11-21T11:25:45;1.13;;;0.90;;
6821;SDS011;3449;48.728;8.968;2023-11-21T11:28:21;1.43;;;1.03;;
6821;SDS011;3449;48.728;8.968;2023-11-21T11:31:09;1.97;;;0.90;;
6821;SDS011;3449;48.728;8.968;2023-11-21T11:33:46;1.03;;;1.00;;
6821;SDS011;3449;48.728;8.968;2023-11-21T11:36:20;1.60;;;1.10;;
6821;SDS011;3449;48.728;8.968;2023-11-21T11:38:53;1.50;;;1.40;;
6821;SDS011;3449;48.728;8.968;2023-11-21T11:41:24;1.87;;;1.27;;
6821;SDS011;3449;48.728;8.968;2023-11-21T11:43:52;1.57;;;1.50;;
6821;SDS011;3449;48.728;8.968;2023-11-21T11:46:20;2.43;;;1.87;;
6821;SDS011;3449;48.728;8.968;2023-11-21T11:49:07;3.53;;;2.93;;
6821;SDS011;3449;48.728;8.968;2023-11-21T11:51:34;5.63;;;3.90;;
6821;SDS011;3449;48.728;8.968;2023-11-21T11:54:02;4.50;;;3.13;;
6821;SDS011;3449;48.728;8.968;2023-11-21T11:56:31;4.67;;;4.20;;
6821;SDS011;3449;48.728;8.968;2023-11-21T11:58:59;2.27;;;2.10;;
6821;SDS011;3449;48.728;8.968;2023-11-21T12:01:29;1.77;;;1.50;;
6821;SDS011;3449;48.728;8.968;2023-11-21T12:06:56;2.37;;;2.17;;
6821;SDS011;3449;48.728;8.968;2023-11-21T12:09:25;2.10;;;1.90;;
6821;SDS011;3449;48.728;8.968;2023-11-21T12:11:55;2.43;;;2.00;;
6821;SDS011;3449;48.728;8.968;2023-11-21T12:14:22;3.90;;;2.87;;
6821;SDS011;3449;48.728;8.968;2023-11-21T12:16:51;44.80;;;16.87;;
6821;SDS011;3449;48.728;8.968;2023-11-21T12:19:19;6.63;;;4.20;;
6821;SDS011;3449;48.728;8.968;2023-11-21T12:21:48;12.43;;;5.87;;
6821;SDS011;3449;48.728;8.968;2023-11-21T12:24:15;7.03;;;4.93;;
6821;SDS011;3449;48.728;8.968;2023-11-21T12:26:42;7.80;;;6.30;;
6821;SDS011;3449;48.728;8.968;2023-11-21T12:29:10;5.73;;;4.70;;
6821;SDS011;3449;48.728;8.968;2023-11-21T12:31:37;5.23;;;3.93;;
6821;SDS011;3449;48.728;8.968;2023-11-21T12:34:05;4.47;;;3.90;;
6821;SDS011;3449;48.728;8.968;2023-11-21T12:36:34;7.33;;;3.60;;
6821;SDS011;3449;48.728;8.968;2023-11-21T12:39:01;3.67;;;3.07;;
6821;SDS011;3449;48.728;8.968;2023-11-21T12:41:28;4.63;;;3.33;;
6821;SDS011;3449;48.728;8.968;2023-11-21T12:43:56;3.40;;;2.93;;
6821;SDS011;3449;48.728;8.968;2023-11-21T12:46:24;7.37;;;3.40;;
6821;SDS011;3449;48.728;8.968;2023-11-21T12:48:54;5.90;;;3.43;;
6821;SDS011;3449;48.728;8.968;2023-11-21T12:51:23;3.63;;;3.23;;
6821;SDS011;3449;48.728;8.968;2023-11-21T12:53:50;5.23;;;3.70;;
6821;SDS011;3449;48.728;8.968;2023-11-21T12:56:17;4.60;;;3.70;;
6821;SDS011;3449;48.728;8.968;2023-11-21T12:58:48;4.37;;;3.80;;
6821;SDS011;3449;48.728;8.968;2023-11-21T13:01:16;6.73;;;3.60;;
6821;SDS011;3449;48.728;8.968;2023-11-21T13:03:46;4.70;;;3.80;;
6821;SDS011;3449;48.728;8.968;2023-11-21T13:06:16;5.40;;;3.50;;
6821;SDS011;3449;48.728;8.968;2023-11-21T13:08:45;4.23;;;3.30;;
6821;SDS011;3449;48.728;8.968;2023-11-21T13:11:12;4.17;;;3.10;;
6821;SDS011;3449;48.728;8.968;2023-11-21T13:13:40;15.23;;;7.00;;
6821;SDS011;3449;48.728;8.968;2023-11-21T13:16:08;29.47;;;11.60;;
6821;SDS011;3449;48.728;8.968;2023-11-21T13:18:35;23.73;;;11.27;;
6821;SDS011;3449;48.728;8.968;2023-11-21T13:21:05;16.47;;;9.20;;
6821;SDS011;3449;48.728;8.968;2023-11-21T13:23:36;4.80;;;3.67;;
6821;SDS011;3449;48.728;8.968;2023-11-21T13:26:05;5.63;;;3.60;;
6821;SDS011;3449;48.728;8.968;2023-11-21T13:28:33;5.23;;;4.20;;
6821;SDS011;3449;48.728;8.968;2023-11-21T13:31:02;5.30;;;3.73;;
6821;SDS011;3449;48.728;8.968;2023-11-21T13:33:34;4.00;;;3.10;;
6821;SDS011;3449;48.728;8.968;2023-11-21T13:36:03;5.40;;;3.30;;
6821;SDS011;3449;48.728;8.968;2023-11-21T13:38:32;3.87;;;3.17;;
6821;SDS011;3449;48.728;8.968;2023-11-21T13:41:01;4.20;;;3.50;;
6821;SDS011;3449;48.728;8.968;2023-11-21T13:43:33;3.17;;;2.50;;
6821;SDS011;3449;48.728;8.968;2023-11-21T13:46:02;2.43;;;1.70;;
6821;SDS011;3449;48.728;8.968;2023-11-21T13:48:38;8.97;;;5.70;;
6821;SDS011;3449;48.728;8.968;2023-11-21T13:51:08;2.83;;;1.97;;
6821;SDS011;3449;48.728;8.968;2023-11-21T13:53:42;1.60;;;1.50;;
6821;SDS011;3449;48.728;8.968;2023-11-21T13:56:09;2.70;;;1.67;;
6821;SDS011;3449;48.728;8.968;2023-11-21T13:58:39;2.03;;;1.80;;
6821;SDS011;3449;48.728;8.968;2023-11-21T14:01:11;2.73;;;1.40;;
6821;SDS011;3449;48.728;8.968;2023-11-21T14:03:57;2.80;;;2.03;;
6821;SDS011;3449;48.728;8.968;2023-11-21T14:06:33;1.40;;;1.30;;
6821;SDS011;3449;48.728;8.968;2023-11-21T14:09:09;10.23;;;1.07;;
6821;SDS011;3449;48.728;8.968;2023-11-21T14:11:38;1.10;;;1.00;;
6821;SDS011;3449;48.728;8.968;2023-11-21T14:14:07;1.27;;;0.93;;
6821;SDS011;3449;48.728;8.968;2023-11-21T14:16:34;4.83;;;1.20;;
6821;SDS011;3449;48.728;8.968;2023-11-21T14:19:01;1.10;;;1.10;;
6821;SDS011;3449;48.728;8.968;2023-11-21T14:21:39;1.53;;;1.23;;
6821;SDS011;3449;48.728;8.968;2023-11-21T14:24:08;1.67;;;1.57;;
6821;SDS011;3449;48.728;8.968;2023-11-21T14:26:35;1.27;;;1.17;;
6821;SDS011;3449;48.728;8.968;2023-11-21T14:29:02;1.50;;;1.40;;
6821;SDS011;3449;48.728;8.968;2023-11-21T14:31:31;2.20;;;2.00;;
6821;SDS011;3449;48.728;8.968;2023-11-21T14:33:58;2.10;;;1.63;;
6821;SDS011;3449;48.728;8.968;2023-11-21T14:36:26;1.80;;;1.47;;
6821;SDS011;3449;48.728;8.968;2023-11-21T14:38:53;5.47;;;1.60;;
6821;SDS011;3449;48.728;8.968;2023-11-21T14:41:20;4.50;;;1.60;;
6821;SDS011;3449;48.728;8.968;2023-11-21T14:43:47;3.40;;;1.97;;
6821;SDS011;3449;48.728;8.968;2023-11-21T14:46:15;2.13;;;1.60;;
6821;SDS011;3449;48.728;8.968;2023-11-21T14:48:46;2.27;;;1.80;;
6821;SDS011;3449;48.728;8.968;2023-11-21T14:51:23;10.27;;;6.50;;
6821;SDS011;3449;48.728;8.968;2023-11-21T14:53:57;3.00;;;2.80;;
6821;SDS011;3449;48.728;8.968;2023-11-21T14:56:31;2.70;;;2.50;;
6821;SDS011;3449;48.728;8.968;2023-11-21T14:58:59;6.10;;;2.87;;
6821;SDS011;3449;48.728;8.968;2023-11-21T15:01:31;1.83;;;1.70;;
6821;SDS011;3449;48.728;8.968;2023-11-21T15:04:11;2.20;;;2.00;;
6821;SDS011;3449;48.728;8.968;2023-11-21T15:06:58;2.43;;;1.30;;
6821;SDS011;3449;48.728;8.968;2023-11-21T15:09:24;3.03;;;1.47;;
6821;SDS011;3449;48.728;8.968;2023-11-21T15:12:00;1.70;;;1.60;;
6821;SDS011;3449;48.728;8.968;2023-11-21T15:14:37;0.90;;;0.90;;
6821;SDS011;3449;48.728;8.968;2023-11-21T15:17:03;1.73;;;1.63;;
6821;SDS011;3449;48.728;8.968;2023-11-21T15:19:33;1.73;;;1.63;;
6821;SDS011;3449;48.728;8.968;2023-11-21T15:22:01;1.80;;;1.70;;
6821;SDS011;3449;48.728;8.968;2023-11-21T15:24:28;1.93;;;1.77;;
6821;SDS011;3449;48.728;8.968;2023-11-21T15:26:54;1.60;;;1.50;;